Terminal Aerodrome Forecast
Issued by NWS

Home | Current Version | Previous Version | Text Only | Print | Product List | Glossary Off
Versions: 1 2 3 4 5 6 7 8 9 10 11 12 13 14 15

000
FTUS43 KICT 061120
TAFRSL
TAF
KRSL 061120Z 0612/0712 20013KT P6SM BKN200
     FM061600 25012KT P6SM VCTS BKN050CB
     FM061900 35012G23KT P6SM VCTS BKN050CB
      TEMPO 0619/0623 VRB20G35KT 3SM +TSRA OVC035CB
     FM070000 01012KT P6SM VCTS BKN070CB OVC120=

USA.gov is the U.S. government's official web portal to all federal, state and local government web resources and services.